createdAt,value
2019-06-07T00:00:38.803Z,100.00
2019-06-07T00:03:05.265Z,100.00
2019-06-07T00:05:39.672Z,100.00
2019-06-07T00:08:22.521Z,100.00
2019-06-07T00:10:49.997Z,100.00
2019-06-07T00:13:24.325Z,100.00
2019-06-07T00:15:58.925Z,100.00
2019-06-07T00:18:33.023Z,100.00
2019-06-07T00:21:08.960Z,100.00
2019-06-07T00:23:42.998Z,100.00
2019-06-07T00:26:21.111Z,100.00
2019-06-07T00:28:52.870Z,100.00
2019-06-07T00:31:27.715Z,100.00
2019-06-07T00:34:01.765Z,100.00
2019-06-07T00:36:35.125Z,100.00
2019-06-07T00:39:10.644Z,100.00
2019-06-07T00:41:45.635Z,100.00
2019-06-07T00:44:21.559Z,100.00
2019-06-07T00:46:54.340Z,100.00
2019-06-07T00:49:40.690Z,100.00
2019-06-07T00:52:03.778Z,100.00
2019-06-07T00:54:38.390Z,100.00
2019-06-07T00:57:16.660Z,100.00
2019-06-07T00:59:48.765Z,100.00
2019-06-07T01:02:26.011Z,100.00
2019-06-07T01:04:57.492Z,100.00
2019-06-07T01:07:31.655Z,100.00
2019-06-07T01:10:05.212Z,100.00
2019-06-07T01:12:38.231Z,100.00
2019-06-07T01:15:15.767Z,100.00
2019-06-07T01:18:33.204Z,100.00
2019-06-07T01:20:24.854Z,100.00
2019-06-07T01:22:58.192Z,100.00
2019-06-07T01:25:31.574Z,100.00
2019-06-07T01:28:04.734Z,100.00
2019-06-07T01:30:38.457Z,100.00
2019-06-07T01:33:11.618Z,100.00
2019-06-07T01:35:44.569Z,100.00
2019-06-07T01:38:21.192Z,100.00
2019-06-07T01:40:52.865Z,100.00
2019-06-07T01:43:30.469Z,100.00
2019-06-07T01:46:03.554Z,100.00
2019-06-07T01:48:48.934Z,100.00
2019-06-07T01:51:13.623Z,100.00
2019-06-07T01:53:47.149Z,100.00
2019-06-07T01:56:22.546Z,100.00
2019-06-07T01:58:56.419Z,100.00
2019-06-07T02:01:35.027Z,100.00
2019-06-07T02:04:05.183Z,100.00
2019-06-07T02:06:38.665Z,100.00
2019-06-07T02:09:13.228Z,100.00
2019-06-07T02:11:46.704Z,100.00
2019-06-07T02:14:22.319Z,100.00
2019-06-07T02:16:54.983Z,100.00
2019-06-07T02:19:31.675Z,100.00
2019-06-07T02:22:03.499Z,100.00
2019-06-07T02:24:36.685Z,100.00
2019-06-07T02:27:10.062Z,100.00
2019-06-07T02:29:43.491Z,100.00
2019-06-07T02:32:16.949Z,100.00
2019-06-07T02:34:50.228Z,100.00
2019-06-07T02:37:26.355Z,100.00
2019-06-07T02:39:59.000Z,100.00
2019-06-07T02:42:39.004Z,100.00
2019-06-07T02:45:08.703Z,100.00
2019-06-07T02:47:45.360Z,100.00
2019-06-07T02:50:19.502Z,100.00
2019-06-07T02:52:53.844Z,100.00
2019-06-07T02:55:31.252Z,100.00
2019-06-07T02:58:04.155Z,100.00
2019-06-07T03:01:08.868Z,100.00
2019-06-07T03:03:28.345Z,100.00
2019-06-07T03:06:01.478Z,100.00
2019-06-07T03:08:36.818Z,100.00
2019-06-07T03:11:12.780Z,100.00
2019-06-07T03:13:48.537Z,100.00
2019-06-07T03:16:37.355Z,100.00
2019-06-07T03:19:18.233Z,100.00
2019-06-07T03:21:55.318Z,100.00
2019-06-07T03:24:31.565Z,100.00
2019-06-07T03:29:41.459Z,100.00
2019-06-07T03:32:15.519Z,100.00
2019-06-07T03:34:48.764Z,100.00
2019-06-07T03:37:21.967Z,100.00
2019-06-07T03:39:54.845Z,100.00
2019-06-07T03:42:29.208Z,100.00
2019-06-07T03:45:03.892Z,100.00
2019-06-07T03:47:41.427Z,100.00
2019-06-07T03:50:12.467Z,100.00
2019-06-07T03:52:45.496Z,100.00
2019-06-07T03:55:18.652Z,100.00
2019-06-07T04:00:29.615Z,100.00
2019-06-07T04:03:02.958Z,100.00
2019-06-07T04:05:38.831Z,100.00
2019-06-07T04:08:11.387Z,100.00
2019-06-07T04:10:59.031Z,100.00
2019-06-07T04:13:20.161Z,100.00
2019-06-07T04:15:53.539Z,100.00
2019-06-07T04:18:27.933Z,100.00
2019-06-07T04:21:01.374Z,100.00
2019-06-07T04:23:37.605Z,100.00
2019-06-07T04:26:10.072Z,100.00
2019-06-07T04:31:19.276Z,100.00
2019-06-07T04:33:53.374Z,100.00
2019-06-07T04:36:41.887Z,100.00
2019-06-07T04:39:03.491Z,100.00
2019-06-07T04:41:41.044Z,100.00
2019-06-07T04:44:17.486Z,100.00
2019-06-07T04:46:52.784Z,100.00
2019-06-07T04:49:29.721Z,100.00
2019-06-07T04:52:03.219Z,100.00
2019-06-07T04:54:38.534Z,100.00
2019-06-07T04:57:11.078Z,100.00
2019-06-07T05:02:19.947Z,100.00
2019-06-07T05:04:53.550Z,100.00
2019-06-07T05:07:27.022Z,100.00
2019-06-07T05:10:01.416Z,100.00
2019-06-07T05:12:39.474Z,100.00
2019-06-07T05:15:11.952Z,100.00
2019-06-07T05:17:46.077Z,100.00
2019-06-07T05:20:19.303Z,100.00
2019-06-07T05:22:52.989Z,100.00
2019-06-07T05:25:26.417Z,100.00
2019-06-07T05:28:00.826Z,100.00
2019-06-07T05:33:15.185Z,100.00
2019-06-07T05:35:48.956Z,99.40
2019-06-07T05:38:24.828Z,98.75
2019-06-07T05:40:58.645Z,99.06
2019-06-07T05:43:36.564Z,99.36
2019-06-07T05:46:09.745Z,97.43
2019-06-07T05:48:43.912Z,96.50
2019-06-07T05:51:18.499Z,95.77
2019-06-07T05:53:51.700Z,95.21
2019-06-07T05:56:25.560Z,95.16
2019-06-07T05:58:59.222Z,95.08
2019-06-07T06:01:59.767Z,94.09
2019-06-07T06:04:09.332Z,93.18
2019-06-07T06:06:46.496Z,93.14
2019-06-07T06:09:17.207Z,94.51
2019-06-07T06:12:01.794Z,93.93
2019-06-07T06:14:25.210Z,94.46
2019-06-07T06:16:58.966Z,93.61
2019-06-07T06:19:32.489Z,91.05
2019-06-07T06:22:05.957Z,85.91
2019-06-07T06:24:42.259Z,82.00
2019-06-07T06:27:41.751Z,76.29
2019-06-07T06:29:52.403Z,74.87
2019-06-07T06:32:49.322Z,72.40
2019-06-07T06:35:01.719Z,69.27
2019-06-07T06:37:35.299Z,65.72
2019-06-07T06:40:09.250Z,65.71
2019-06-07T06:42:44.748Z,63.98
2019-06-07T06:45:18.158Z,61.40
2019-06-07T06:47:51.561Z,61.51
2019-06-07T06:50:24.949Z,58.83
2019-06-07T06:52:58.327Z,62.69
2019-06-07T06:55:31.518Z,61.13
2019-06-07T06:58:04.497Z,59.85
2019-06-07T07:01:05.867Z,59.18
2019-06-07T07:03:57.343Z,60.31
2019-06-07T07:06:25.096Z,58.65
2019-06-07T07:08:43.665Z,55.95
2019-06-07T07:11:23.050Z,54.79
2019-06-07T07:13:56.707Z,52.00
2019-06-07T07:16:30.057Z,51.57
2019-06-07T07:19:03.316Z,52.19
2019-06-07T07:21:38.761Z,49.23
2019-06-07T07:24:21.867Z,47.90
2019-06-07T07:26:50.351Z,46.69
2019-06-07T07:29:23.255Z,46.23
2019-06-07T07:31:57.195Z,47.58
2019-06-07T07:34:36.657Z,54.09
2019-06-07T07:37:08.646Z,52.03
2019-06-07T07:39:45.295Z,47.84
2019-06-07T07:42:21.906Z,46.63
2019-06-07T07:44:56.765Z,48.87
2019-06-07T07:47:32.769Z,56.01
2019-06-07T07:50:07.338Z,52.15
2019-06-07T07:52:41.623Z,47.04
2019-06-07T07:55:15.436Z,45.74
2019-06-07T07:57:58.013Z,45.06
2019-06-07T08:00:50.270Z,42.16
2019-06-07T08:03:04.340Z,40.64
2019-06-07T08:05:42.949Z,39.91
2019-06-07T08:08:12.735Z,38.51
2019-06-07T08:10:51.364Z,37.40
2019-06-07T08:13:25.458Z,42.72
2019-06-07T08:16:00.387Z,39.92
2019-06-07T08:18:33.375Z,38.49
2019-06-07T08:21:22.489Z,37.97
2019-06-07T08:23:42.498Z,38.23
2019-06-07T08:26:16.408Z,43.41
2019-06-07T08:28:54.718Z,41.56
2019-06-07T08:31:26.828Z,39.78
2019-06-07T08:34:01.949Z,46.88
2019-06-07T08:36:42.490Z,41.54
2019-06-07T08:39:16.880Z,41.23
2019-06-07T08:41:59.367Z,41.61
2019-06-07T08:44:26.518Z,42.17
2019-06-07T08:47:18.897Z,41.18
2019-06-07T08:49:39.195Z,40.48
2019-06-07T08:52:13.019Z,39.44
2019-06-07T08:54:48.096Z,40.64
2019-06-07T08:57:22.133Z,38.65
2019-06-07T09:00:05.985Z,36.64
2019-06-07T09:02:32.954Z,36.04
2019-06-07T09:05:12.241Z,37.05
2019-06-07T09:07:46.457Z,37.54
2019-06-07T09:10:20.893Z,38.01
2019-06-07T09:13:00.297Z,43.80
2019-06-07T09:15:32.855Z,44.54
2019-06-07T09:18:40.094Z,44.80
2019-06-07T09:20:51.435Z,41.83
2019-06-07T09:23:25.149Z,40.23
2019-06-07T09:26:06.465Z,42.74
2019-06-07T09:28:35.555Z,40.26
2019-06-07T09:31:10.536Z,40.49
2019-06-07T09:33:43.766Z,39.46
2019-06-07T09:36:18.800Z,37.54
2019-06-07T09:38:52.745Z,39.58
2019-06-07T09:41:46.161Z,39.86
2019-06-07T09:44:18.946Z,40.98
2019-06-07T09:46:37.104Z,44.86
2019-06-07T09:49:21.135Z,40.91
2019-06-07T09:51:46.590Z,39.49
2019-06-07T09:55:03.372Z,40.23
2019-06-07T09:56:55.387Z,39.76
2019-06-07T09:59:29.443Z,37.61
2019-06-07T10:02:05.588Z,36.74
2019-06-07T10:04:38.342Z,36.56
2019-06-07T10:07:28.630Z,36.17
2019-06-07T10:10:19.633Z,38.44
2019-06-07T10:12:26.693Z,36.19
2019-06-07T10:15:07.034Z,42.85
2019-06-07T10:17:41.029Z,37.94
2019-06-07T10:20:14.692Z,37.25
2019-06-07T10:22:49.624Z,38.35
2019-06-07T10:25:23.146Z,36.65
2019-06-07T10:27:57.052Z,37.10
2019-06-07T10:30:30.951Z,37.40
2019-06-07T10:33:04.964Z,36.89
2019-06-07T10:35:39.245Z,35.64
2019-06-07T10:38:12.458Z,34.85
2019-06-07T10:40:45.585Z,34.18
2019-06-07T10:43:19.279Z,36.28
2019-06-07T10:45:52.831Z,35.15
2019-06-07T10:48:26.320Z,34.07
2019-06-07T10:51:00.121Z,33.50
2019-06-07T10:53:33.753Z,36.61
2019-06-07T10:56:09.024Z,34.80
2019-06-07T10:58:42.923Z,35.06
2019-06-07T11:01:17.513Z,35.30
2019-06-07T11:03:51.947Z,39.27
2019-06-07T11:06:26.276Z,42.46
2019-06-07T11:09:00.247Z,40.51
2019-06-07T11:11:33.702Z,38.88
2019-06-07T11:14:08.603Z,35.58
2019-06-07T11:16:42.599Z,35.20
2019-06-07T11:19:18.013Z,34.13
2019-06-07T11:21:51.207Z,35.06
2019-06-07T11:24:25.801Z,35.91
2019-06-07T11:26:59.267Z,36.27
2019-06-07T11:29:33.730Z,35.85
2019-06-07T11:32:08.407Z,35.34
2019-06-07T11:34:42.800Z,35.94
2019-06-07T11:37:19.069Z,35.65
2019-06-07T11:39:53.338Z,37.11
2019-06-07T11:42:28.207Z,35.91
2019-06-07T11:45:02.347Z,35.62
2019-06-07T11:47:37.553Z,36.75
2019-06-07T11:50:13.731Z,37.63
2019-06-07T11:52:49.087Z,40.23
2019-06-07T11:55:23.287Z,39.33
2019-06-07T11:58:01.770Z,37.68
2019-06-07T12:00:36.111Z,38.97
2019-06-07T12:03:11.551Z,39.98
2019-06-07T12:05:45.688Z,39.39
2019-06-07T12:08:22.783Z,40.51
2019-06-07T12:10:56.479Z,38.00
2019-06-07T12:13:31.113Z,38.98
2019-06-07T12:16:09.062Z,39.88
2019-06-07T12:18:43.075Z,39.54
2019-06-07T12:21:18.007Z,40.08
2019-06-07T12:23:52.337Z,42.17
2019-06-07T12:26:26.404Z,40.65
2019-06-07T12:29:00.841Z,41.89
2019-06-07T12:31:34.658Z,41.21
2019-06-07T12:34:09.398Z,41.19
2019-06-07T12:36:43.084Z,40.69
2019-06-07T12:39:16.613Z,39.92
2019-06-07T12:41:49.929Z,40.06
2019-06-07T12:44:23.937Z,40.69
2019-06-07T12:46:59.573Z,40.25
2019-06-07T12:49:36.059Z,39.66
2019-06-07T12:52:15.694Z,40.23
2019-06-07T12:54:48.601Z,39.18
2019-06-07T12:57:24.325Z,39.70
2019-06-07T12:59:59.818Z,40.32
2019-06-07T13:02:35.596Z,40.42
2019-06-07T13:05:11.296Z,39.44
2019-06-07T13:07:44.826Z,38.86
2019-06-07T13:10:22.053Z,40.49
2019-06-07T13:12:57.580Z,40.58
2019-06-07T13:15:36.575Z,41.31
2019-06-07T13:18:14.837Z,41.15
2019-06-07T13:20:47.054Z,39.49
2019-06-07T13:23:22.673Z,38.79
2019-06-07T13:25:57.896Z,39.71
2019-06-07T13:28:31.955Z,39.68
2019-06-07T13:31:06.262Z,39.43
2019-06-07T13:33:42.900Z,39.33
2019-06-07T13:36:18.022Z,39.20
2019-06-07T13:38:54.896Z,38.73
2019-06-07T13:41:40.524Z,38.25
2019-06-07T13:44:04.548Z,38.92
2019-06-07T13:46:38.561Z,37.14
2019-06-07T13:49:12.411Z,37.05
2019-06-07T13:51:48.736Z,38.62
2019-06-07T13:54:22.832Z,38.41
2019-06-07T13:57:02.282Z,37.85
2019-06-07T13:59:31.771Z,37.68
2019-06-07T14:02:05.299Z,38.91
2019-06-07T14:04:39.226Z,39.04
2019-06-07T14:07:13.282Z,38.79
2019-06-07T14:09:47.659Z,38.52
2019-06-07T14:12:22.272Z,37.82
2019-06-07T14:14:57.193Z,39.15
2019-06-07T14:17:32.533Z,39.55
2019-06-07T14:20:06.968Z,39.42
2019-06-07T14:22:40.747Z,37.94
2019-06-07T14:25:14.386Z,37.52
2019-06-07T14:27:48.599Z,39.14
2019-06-07T14:30:23.807Z,37.02
2019-06-07T14:32:57.725Z,37.38
2019-06-07T14:35:33.690Z,37.67
2019-06-07T14:38:08.876Z,37.00
2019-06-07T14:40:43.294Z,35.20
2019-06-07T14:43:17.653Z,35.34
2019-06-07T14:45:57.097Z,35.05
2019-06-07T14:48:33.022Z,35.19
2019-06-07T14:51:07.003Z,35.42
2019-06-07T14:53:40.813Z,35.27
2019-06-07T14:56:14.490Z,35.69
2019-06-07T14:58:48.477Z,34.04
2019-06-07T15:01:22.141Z,34.24
2019-06-07T15:03:55.816Z,35.06
2019-06-07T15:06:30.659Z,34.90
2019-06-07T15:09:07.035Z,34.78
2019-06-07T15:11:40.939Z,34.07
2019-06-07T15:14:17.475Z,31.98
2019-06-07T15:16:51.621Z,34.52
2019-06-07T15:19:26.616Z,33.00
2019-06-07T15:22:00.703Z,33.58
2019-06-07T15:24:38.610Z,33.61
2019-06-07T15:27:10.512Z,34.36
2019-06-07T15:29:45.191Z,35.18
2019-06-07T15:32:19.600Z,35.35
2019-06-07T15:34:53.550Z,36.16
2019-06-07T15:37:26.772Z,36.69
2019-06-07T15:40:07.530Z,36.58
2019-06-07T15:42:51.919Z,37.72
2019-06-07T15:45:19.805Z,38.13
2019-06-07T15:47:54.663Z,38.60
2019-06-07T15:50:30.387Z,39.48
2019-06-07T15:53:06.851Z,39.83
2019-06-07T15:55:45.409Z,39.75
2019-06-07T15:58:18.634Z,40.12
2019-06-07T16:00:53.657Z,41.01
2019-06-07T16:03:28.181Z,41.60
2019-06-07T16:06:01.899Z,40.63
2019-06-07T16:08:36.300Z,40.90
2019-06-07T16:11:11.596Z,41.14
2019-06-07T16:13:46.405Z,40.62
2019-06-07T16:16:20.480Z,41.69
2019-06-07T16:18:56.035Z,41.47
2019-06-07T16:21:30.658Z,41.96
2019-06-07T16:24:05.843Z,42.99
2019-06-07T16:26:40.452Z,41.64
2019-06-07T16:29:15.097Z,40.87
2019-06-07T16:31:49.773Z,40.52
2019-06-07T16:34:30.408Z,40.44
2019-06-07T16:37:04.967Z,40.86
2019-06-07T16:39:45.738Z,40.51
2019-06-07T16:42:21.334Z,39.31
2019-06-07T16:44:55.208Z,39.40
2019-06-07T16:47:30.021Z,39.26
2019-06-07T16:50:04.855Z,41.34
2019-06-07T16:52:39.210Z,42.47
2019-06-07T16:55:14.010Z,42.74
2019-06-07T16:57:49.367Z,41.83
2019-06-07T17:00:25.241Z,41.97
2019-06-07T17:03:00.006Z,42.00
2019-06-07T17:05:33.629Z,42.64
2019-06-07T17:08:10.256Z,44.03
2019-06-07T17:10:46.289Z,45.33
2019-06-07T17:13:33.115Z,44.73
2019-06-07T17:15:56.245Z,45.34
2019-06-07T17:18:31.033Z,45.00
2019-06-07T17:21:04.820Z,44.26
2019-06-07T17:23:47.308Z,43.62
2019-06-07T17:26:21.656Z,43.73
2019-06-07T17:28:56.436Z,44.21
2019-06-07T17:31:31.384Z,44.74
2019-06-07T17:34:05.638Z,43.78
2019-06-07T17:36:40.340Z,43.74
2019-06-07T17:39:15.027Z,44.44
2019-06-07T17:42:00.015Z,44.48
2019-06-07T17:44:27.082Z,42.93
2019-06-07T17:47:01.323Z,42.84
2019-06-07T17:49:36.068Z,42.30
2019-06-07T17:52:10.933Z,43.23
2019-06-07T17:54:47.924Z,43.77
2019-06-07T17:57:22.818Z,44.22
2019-06-07T17:59:56.311Z,44.31
2019-06-07T18:02:32.911Z,44.21
2019-06-07T18:05:07.953Z,44.31
2019-06-07T18:07:45.345Z,44.43
2019-06-07T18:10:37.294Z,45.09
2019-06-07T18:13:14.695Z,45.61
2019-06-07T18:15:53.938Z,46.25
2019-06-07T18:18:26.913Z,46.61
2019-06-07T18:21:01.178Z,47.14
2019-06-07T18:23:34.733Z,46.80
2019-06-07T18:26:10.875Z,46.65
2019-06-07T18:28:44.934Z,45.60
2019-06-07T18:31:19.063Z,44.73
2019-06-07T18:33:53.330Z,44.15
2019-06-07T18:36:27.754Z,44.51
2019-06-07T18:39:04.381Z,44.75
2019-06-07T18:41:38.824Z,44.27
2019-06-07T18:44:21.598Z,44.26
2019-06-07T18:46:52.231Z,44.04
2019-06-07T18:49:26.000Z,43.37
2019-06-07T18:52:25.848Z,43.58
2019-06-07T18:55:04.482Z,43.32
2019-06-07T18:57:39.232Z,43.97
2019-06-07T19:00:20.465Z,44.23
2019-06-07T19:02:56.116Z,44.18
2019-06-07T19:05:30.674Z,43.95
2019-06-07T19:08:07.047Z,43.94
2019-06-07T19:10:45.808Z,44.36
2019-06-07T19:13:19.803Z,45.14
2019-06-07T19:15:53.744Z,45.69
2019-06-07T19:18:28.837Z,45.77
2019-06-07T19:21:04.995Z,45.20
2019-06-07T19:23:45.408Z,44.70
2019-06-07T19:26:20.060Z,44.87
2019-06-07T19:28:58.854Z,44.03
2019-06-07T19:31:34.400Z,44.27
2019-06-07T19:34:10.711Z,44.88
2019-06-07T19:36:49.082Z,44.10
2019-06-07T19:39:23.475Z,44.88
2019-06-07T19:42:00.078Z,45.75
2019-06-07T19:44:34.183Z,45.99
2019-06-07T19:47:09.438Z,46.37
2019-06-07T19:49:44.888Z,45.92
2019-06-07T19:52:19.415Z,46.63
2019-06-07T19:54:59.815Z,46.78
2019-06-07T19:57:35.096Z,46.74
2019-06-07T20:00:14.531Z,46.33
2019-06-07T20:02:49.433Z,47.41
2019-06-07T20:05:29.477Z,47.69
2019-06-07T20:08:04.917Z,47.94
2019-06-07T20:10:48.366Z,48.48
2019-06-07T20:13:25.092Z,48.95
2019-06-07T20:16:00.900Z,48.67
2019-06-07T20:18:34.619Z,49.33
2019-06-07T20:21:09.223Z,49.02
2019-06-07T20:23:52.401Z,49.50
2019-06-07T20:26:27.471Z,50.09
2019-06-07T20:29:03.540Z,50.56
2019-06-07T20:31:37.847Z,50.81
2019-06-07T20:34:12.463Z,51.58
2019-06-07T20:36:46.188Z,52.16
2019-06-07T20:39:20.873Z,51.97
2019-06-07T20:41:55.602Z,52.42
2019-06-07T20:44:30.502Z,52.99
2019-06-07T20:47:06.445Z,53.43
2019-06-07T20:49:41.407Z,54.32
2019-06-07T20:52:16.484Z,55.19
2019-06-07T20:54:51.992Z,55.88
2019-06-07T20:57:29.209Z,56.30
2019-06-07T21:00:13.679Z,56.65
2019-06-07T21:02:46.084Z,56.99
2019-06-07T21:05:19.404Z,57.38
2019-06-07T21:07:52.780Z,57.45
2019-06-07T21:10:27.270Z,55.99
2019-06-07T21:13:03.785Z,53.87
2019-06-07T21:15:48.535Z,53.42
2019-06-07T21:18:20.046Z,53.56
2019-06-07T21:20:55.452Z,53.87
2019-06-07T21:23:30.751Z,54.63
2019-06-07T21:26:05.040Z,56.15
2019-06-07T21:28:39.961Z,57.67
2019-06-07T21:31:13.540Z,59.04
2019-06-07T21:33:47.164Z,60.26
2019-06-07T21:36:20.764Z,60.72
2019-06-07T21:38:54.303Z,60.90
2019-06-07T21:41:28.777Z,60.63
2019-06-07T21:44:02.481Z,61.22
2019-06-07T21:46:36.485Z,61.69
2019-06-07T21:49:10.537Z,61.09
2019-06-07T21:51:44.315Z,62.13
2019-06-07T21:54:19.580Z,63.05
2019-06-07T21:56:53.424Z,63.90
2019-06-07T21:59:28.601Z,64.22
2019-06-07T22:02:28.688Z,64.91
2019-06-07T22:05:03.368Z,64.29
2019-06-07T22:07:37.606Z,64.14
2019-06-07T22:10:14.475Z,64.17
2019-06-07T22:12:48.431Z,63.84
2019-06-07T22:15:33.941Z,63.46
2019-06-07T22:18:01.579Z,63.58
2019-06-07T22:20:35.560Z,62.08
2019-06-07T22:23:10.696Z,61.65
2019-06-07T22:25:45.126Z,61.86
2019-06-07T22:28:18.813Z,62.76
2019-06-07T22:30:52.733Z,63.45
2019-06-07T22:33:27.523Z,63.47
2019-06-07T22:36:00.889Z,63.77
2019-06-07T22:38:34.621Z,63.64
2019-06-07T22:41:09.342Z,64.14
2019-06-07T22:43:43.759Z,64.92
2019-06-07T22:46:17.371Z,65.60
2019-06-07T22:48:50.717Z,65.99
2019-06-07T22:51:24.522Z,65.94
2019-06-07T22:53:58.273Z,65.78
2019-06-07T22:56:43.482Z,65.70
2019-06-07T22:59:19.146Z,65.87
2019-06-07T23:01:52.445Z,65.98
2019-06-07T23:04:25.950Z,66.56
2019-06-07T23:06:59.443Z,66.38
2019-06-07T23:09:32.410Z,66.15
2019-06-07T23:12:05.672Z,65.57
2019-06-07T23:14:38.708Z,65.10
2019-06-07T23:17:11.749Z,67.97
2019-06-07T23:19:44.680Z,69.04
2019-06-07T23:22:18.118Z,66.85
2019-06-07T23:24:51.279Z,67.27
2019-06-07T23:27:24.561Z,67.01
2019-06-07T23:29:58.072Z,66.67
2019-06-07T23:32:31.821Z,66.70
2019-06-07T23:35:05.851Z,67.27
2019-06-07T23:37:39.185Z,66.26
2019-06-07T23:40:13.131Z,65.47
2019-06-07T23:42:46.798Z,65.36
2019-06-07T23:45:21.575Z,65.24
2019-06-07T23:47:55.008Z,64.88
2019-06-07T23:50:28.340Z,65.31
2019-06-07T23:53:03.072Z,65.71
2019-06-07T23:55:36.997Z,65.67
2019-06-07T23:58:13.859Z,65.20
